Time;durP1;ratioP1;P1;durP2;ratioP2;P2;SDS_P1;SDS_P2;PMS_P1;PMS_P2;Temp;Humidity;BMP_temperature;BMP_pressure;BME280_temperature;BME280_humidity;BME280_pressure;Samples;Min_cycle;Max_cycle;Signal;HPM_P1;HPM_P2
2024/03/10 00:02:29;;;;;;;31.10;13.10;;;;;;;8.07;72.90;99573.91;110983;1273;22071;-83
2024/03/10 00:05:21;;;;;;;31.70;13.40;;;;;;;8.09;72.87;99576.31;110973;1267;22953;-84
2024/03/10 00:08:11;;;;;;;30.40;12.80;;;;;;;8.09;72.93;99570.35;111007;1272;23098;-83
2024/03/10 00:11:02;;;;;;;26.20;11.80;;;;;;;8.08;73.05;99567.66;110930;1272;22824;-84
2024/03/10 00:13:55;;;;;;;27.40;12.10;;;;;;;8.09;72.97;99566.70;110991;1272;22278;-83
2024/03/10 00:16:45;;;;;;;31.00;13.90;;;;;;;8.08;73.10;99569.17;111016;1272;23054;-83
2024/03/10 00:19:36;;;;;;;29.70;13.40;;;;;;;8.08;73.25;99563.55;110993;1272;22138;-83
2024/03/10 00:22:27;;;;;;;25.50;11.60;;;;;;;8.08;73.10;99560.13;110984;1272;22955;-83
2024/03/10 00:25:18;;;;;;;26.90;11.80;;;;;;;8.06;73.09;99559.75;111020;1272;22419;-83
2024/03/10 00:28:09;;;;;;;30.00;12.70;;;;;;;8.05;73.33;99559.02;111005;1272;22986;-85
2024/03/10 00:31:00;;;;;;;28.20;12.90;;;;;;;8.02;73.23;99560.16;110812;1272;22288;-83
2024/03/10 00:33:51;;;;;;;26.60;12.00;;;;;;;8.00;73.42;99556.14;111000;1272;22109;-85
2024/03/10 00:36:41;;;;;;;29.30;12.40;;;;;;;7.98;73.35;99553.67;110957;1272;22829;-84
2024/03/10 00:39:30;;;;;;;;;;;;;;;7.96;73.43;99553.80;111014;1272;22250;-83
2024/03/10 00:42:21;;;;;;;31.80;14.20;;;;;;;7.94;73.56;99552.50;111021;1272;22122;-83
2024/03/10 00:45:12;;;;;;;30.80;13.00;;;;;;;7.92;73.47;99552.16;110934;1272;22070;-83
2024/03/10 00:48:03;;;;;;;31.30;15.00;;;;;;;7.89;73.30;99550.18;110990;1272;22587;-84
2024/03/10 00:50:54;;;;;;;28.70;12.60;;;;;;;7.86;73.68;99544.55;110858;1272;22246;-85
2024/03/10 00:53:45;;;;;;;35.90;14.10;;;;;;;7.83;73.56;99547.02;111023;1272;22154;-82
2024/03/10 00:57:26;;;;;;;30.60;13.00;;;;;;;7.79;73.63;99543.33;110981;1272;22098;-83
2024/03/10 01:00:18;;;;;;;30.10;13.80;;;;;;;7.77;73.84;99540.27;111008;1272;22171;-82
2024/03/10 01:03:11;;;;;;;29.20;12.90;;;;;;;7.76;73.84;99540.64;111017;1272;22212;-83
2024/03/10 01:06:02;;;;;;;30.00;12.40;;;;;;;7.73;73.98;99535.48;110998;1272;22056;-83
2024/03/10 01:08:53;;;;;;;28.90;12.90;;;;;;;7.71;74.02;99530.17;110949;1272;22139;-84
2024/03/10 01:11:44;;;;;;;29.90;12.70;;;;;;;7.69;73.94;99531.35;110947;1272;22322;-88
2024/03/10 01:14:33;;;;;;;;;;;;;;;7.66;73.90;99528.73;111130;1272;22268;-83
2024/03/10 01:17:24;;;;;;;35.20;14.30;;;;;;;7.61;74.32;99523.64;111165;1257;22113;-83
2024/03/10 01:20:15;;;;;;;31.20;13.70;;;;;;;7.58;74.10;99519.98;111140;1272;22771;-84
2024/03/10 01:23:06;;;;;;;29.90;13.30;;;;;;;7.54;74.07;99523.89;111095;1272;22108;-83
2024/03/10 01:25:58;;;;;;;34.10;14.20;;;;;;;7.50;74.14;99519.17;111132;1272;22775;-82
2024/03/10 01:28:49;;;;;;;32.80;15.40;;;;;;;7.48;74.41;99519.98;111147;1272;22141;-83
2024/03/10 01:31:40;;;;;;;32.50;13.40;;;;;;;7.47;74.49;99513.23;111105;1271;22330;-83
2024/03/10 01:34:31;;;;;;;32.30;12.90;;;;;;;7.46;74.70;99507.32;111108;1272;22198;-83
2024/03/10 01:37:22;;;;;;;30.10;13.10;;;;;;;7.43;74.80;99502.72;110891;1259;22822;-83
2024/03/10 01:40:13;;;;;;;34.60;14.30;;;;;;;7.42;74.90;99500.04;110931;1272;22489;-85
2024/03/10 01:43:05;;;;;;;27.40;12.60;;;;;;;7.42;74.96;99497.11;111132;1272;22151;-83
2024/03/10 01:46:06;;;;;;;31.00;13.90;;;;;;;7.43;75.17;99495.30;111124;1272;22125;-83
2024/03/10 01:48:57;;;;;;;33.10;13.90;;;;;;;7.46;75.23;99487.23;111046;1272;22227;-83
2024/03/10 01:51:48;;;;;;;34.60;13.20;;;;;;;7.48;75.25;99486.63;111146;1272;22011;-83
2024/03/10 01:54:41;;;;;;;35.20;14.50;;;;;;;7.51;75.26;99484.66;111100;1272;22193;-84
2024/03/10 01:57:32;;;;;;;33.60;14.60;;;;;;;7.55;75.25;99480.48;111105;1272;22145;-84
2024/03/10 02:00:23;;;;;;;31.10;12.90;;;;;;;7.58;75.33;99475.18;111137;1272;22160;-86
2024/03/10 02:03:15;;;;;;;30.70;13.20;;;;;;;7.60;75.40;99472.20;111079;1272;23069;-84
2024/03/10 02:06:09;;;;;;;31.90;13.30;;;;;;;7.62;75.38;99474.41;111125;1272;22075;-84
2024/03/10 02:08:59;;;;;;;31.00;12.90;;;;;;;7.64;75.33;99471.36;110976;1272;22063;-83
2024/03/10 02:11:51;;;;;;;34.20;13.90;;;;;;;7.67;75.29;99469.55;111107;1272;22287;-83
2024/03/10 02:14:42;;;;;;;30.70;12.80;;;;;;;7.69;75.37;99467.82;111144;1272;22821;-83
2024/03/10 02:17:36;;;;;;;32.70;12.70;;;;;;;7.72;75.29;99460.44;110979;1272;23002;-84
2024/03/10 02:20:27;;;;;;;29.30;12.90;;;;;;;7.75;75.30;99456.61;111007;1272;22167;-84
2024/03/10 02:23:16;;;;;;;;;;;;;;;7.78;75.13;99459.19;111013;1272;23046;-82
2024/03/10 02:26:07;;;;;;;26.60;11.40;;;;;;;7.79;75.27;99453.59;111005;1272;22105;-84
2024/03/10 02:29:14;;;;;;;28.70;12.20;;;;;;;7.80;75.17;99450.38;111006;1272;22840;-83
2024/03/10 02:48:03;;;;;;;25.90;11.20;;;;;;;7.92;74.78;99439.64;111041;1272;22785;-83
2024/03/10 02:50:53;;;;;;;26.70;10.50;;;;;;;7.94;74.76;99437.74;110811;1272;22111;-84
2024/03/10 02:53:46;;;;;;;28.10;11.10;;;;;;;7.96;74.55;99439.05;111026;1272;22138;-83
2024/03/10 02:56:37;;;;;;;28.10;12.40;;;;;;;7.97;74.54;99438.04;111130;1272;22061;-83
2024/03/10 02:59:29;;;;;;;28.60;12.50;;;;;;;7.99;74.52;99436.81;111119;1272;22851;-83
2024/03/10 03:02:22;;;;;;;29.70;12.20;;;;;;;8.01;74.29;99435.89;111131;1272;23079;-83
2024/03/10 03:05:17;;;;;;;26.60;11.70;;;;;;;8.03;74.44;99432.62;111120;1272;22181;-83
2024/03/10 03:08:09;;;;;;;27.30;12.30;;;;;;;8.04;74.23;99429.16;111139;1272;22190;-83
2024/03/10 03:10:59;;;;;;;28.10;12.00;;;;;;;8.05;74.39;99426.86;111122;1272;22896;-83
2024/03/10 03:13:48;;;;;;;;;;;;;;;8.07;74.33;99421.67;111151;1272;23244;-83
2024/03/10 03:16:39;;;;;;;32.70;13.40;;;;;;;8.07;74.11;99419.70;111148;1272;22167;-84
2024/03/10 03:19:32;;;;;;;33.40;14.00;;;;;;;8.08;74.39;99416.04;111129;1272;22770;-83
2024/03/10 03:22:23;;;;;;;30.00;14.10;;;;;;;8.09;74.34;99413.12;110924;1272;22646;-87
2024/03/10 03:25:14;;;;;;;28.50;12.40;;;;;;;8.09;73.93;99408.86;111130;1272;22202;-84
2024/03/10 03:28:06;;;;;;;27.50;12.50;;;;;;;8.08;74.03;99408.34;111134;1272;22885;-83
2024/03/10 03:30:57;;;;;;;28.40;12.80;;;;;;;8.08;74.00;99406.31;111146;1272;22816;-84
2024/03/10 03:33:48;;;;;;;28.20;11.20;;;;;;;8.08;73.79;99412.39;111115;1272;22165;-83
2024/03/10 03:36:37;;;;;;;;;;;;;;;8.08;73.58;99408.75;111148;1272;22217;-83
2024/03/10 03:39:27;;;;;;;26.90;12.10;;;;;;;8.07;73.84;99409.35;111128;1272;23096;-83
2024/03/10 03:42:18;;;;;;;22.80;9.70;;;;;;;8.08;73.78;99407.73;111136;1272;22141;-83
2024/03/10 03:45:10;;;;;;;29.90;11.20;;;;;;;8.08;73.85;99408.50;111129;1272;22045;-84
2024/03/10 03:48:02;;;;;;;27.70;11.30;;;;;;;8.09;73.76;99408.96;110994;1273;22793;-85
2024/03/10 03:50:53;;;;;;;23.60;9.60;;;;;;;8.09;73.84;99409.39;111017;1273;22219;-84
2024/03/10 03:53:44;;;;;;;;;;;;;;;8.10;73.84;99409.11;111003;1272;22291;-83
2024/03/10 03:56:35;;;;;;;21.60;9.50;;;;;;;8.10;73.75;99408.55;110986;1273;22149;-82
2024/03/10 03:59:26;;;;;;;24.70;9.40;;;;;;;8.10;73.81;99407.18;110961;1273;22181;-83
2024/03/10 04:02:23;;;;;;;24.70;9.70;;;;;;;8.11;73.88;99408.35;110980;1273;22087;-83
2024/03/10 04:05:14;;;;;;;23.60;9.40;;;;;;;8.12;73.95;99404.87;110990;1273;22172;-83
2024/03/10 04:08:03;;;;;;;;;;;;;;;8.12;74.01;99402.65;111007;1273;22437;-83
2024/03/10 04:10:53;;;;;;;23.50;10.10;;;;;;;8.12;73.96;99401.48;110999;1273;22196;-83
2024/03/10 04:13:44;;;;;;;26.90;10.40;;;;;;;8.12;73.97;99397.15;110998;1273;22199;-83
2024/03/10 04:16:35;;;;;;;27.30;9.60;;;;;;;8.12;73.98;99392.86;110985;1273;22174;-83
2024/03/10 04:19:26;;;;;;;25.40;10.10;;;;;;;8.13;73.92;99392.96;111010;1259;22206;-83
2024/03/10 04:22:18;;;;;;;26.60;10.50;;;;;;;8.13;73.68;99390.03;110979;1273;22989;-86
2024/03/10 04:25:10;;;;;;;26.20;11.00;;;;;;;8.13;73.67;99388.36;110992;1272;22139;-84
2024/03/10 04:28:02;;;;;;;26.00;10.70;;;;;;;8.13;73.63;99387.20;111016;1272;22077;-84
2024/03/10 04:30:53;;;;;;;29.90;12.20;;;;;;;8.12;73.36;99386.74;110985;1273;22301;-83
2024/03/10 04:33:44;;;;;;;29.70;11.50;;;;;;;8.12;73.27;99384.00;110994;1273;22139;-83
2024/03/10 04:36:35;;;;;;;26.40;11.30;;;;;;;8.11;73.07;99380.15;110995;1272;22995;-83
2024/03/10 04:39:25;;;;;;;27.80;11.30;;;;;;;8.09;73.19;99381.42;111012;1273;22221;-83
2024/03/10 04:42:16;;;;;;;27.30;12.20;;;;;;;8.09;73.13;99381.46;110988;1273;23409;-82
2024/03/10 04:45:08;;;;;;;29.30;11.20;;;;;;;8.08;73.09;99377.92;111010;1273;23005;-83
2024/03/10 04:47:58;;;;;;;29.50;11.70;;;;;;;8.09;73.27;99376.16;111012;1272;22108;-83
2024/03/10 04:50:49;;;;;;;23.70;10.10;;;;;;;8.09;73.06;99379.30;110979;1272;22150;-83
2024/03/10 04:53:38;;;;;;;;;;;;;;;8.10;72.93;99378.55;111025;1273;22350;-82
2024/03/10 04:56:30;;;;;;;27.30;10.50;;;;;;;8.10;72.96;99379.20;111036;1272;22908;-83
2024/03/10 04:59:20;;;;;;;27.80;10.70;;;;;;;8.10;73.04;99380.23;111015;1273;22781;-84
2024/03/10 05:02:12;;;;;;;27.80;11.70;;;;;;;8.10;72.75;99380.53;110991;1272;22282;-83
2024/03/10 05:05:03;;;;;;;28.00;12.40;;;;;;;8.09;72.78;99378.58;111006;1273;22201;-85
2024/03/10 05:07:54;;;;;;;25.90;11.50;;;;;;;8.09;72.76;99383.65;111009;1272;22131;-84
2024/03/10 05:10:46;;;;;;;26.10;10.80;;;;;;;8.11;72.86;99385.65;111100;1269;22102;-84
2024/03/10 05:13:38;;;;;;;28.90;10.90;;;;;;;8.11;72.76;99385.55;111117;1271;23035;-85
2024/03/10 05:16:28;;;;;;;25.40;11.00;;;;;;;8.12;72.79;99384.77;110984;1269;22837;-85
2024/03/10 05:19:19;;;;;;;30.20;12.40;;;;;;;8.12;72.78;99383.43;110988;1266;22238;-84
2024/03/10 05:22:11;;;;;;;28.40;12.00;;;;;;;8.13;72.89;99385.27;111146;1268;22932;-85
2024/03/10 05:25:01;;;;;;;29.50;12.30;;;;;;;8.13;72.77;99386.13;111083;1269;22106;-85
2024/03/10 05:27:52;;;;;;;27.90;12.20;;;;;;;8.13;72.81;99380.48;110916;1266;22500;-84
2024/03/10 05:30:44;;;;;;;32.50;12.60;;;;;;;8.13;72.71;99378.52;111064;1272;22177;-84
2024/03/10 05:33:35;;;;;;;30.10;12.60;;;;;;;8.13;72.63;99378.46;110792;1272;22205;-84
2024/03/10 05:36:26;;;;;;;25.40;10.70;;;;;;;8.12;72.44;99376.63;110797;1266;22173;-84
2024/03/10 05:39:18;;;;;;;27.00;10.90;;;;;;;8.11;72.39;99383.73;110837;1266;22421;-84
2024/03/10 05:42:09;;;;;;;24.70;9.50;;;;;;;8.12;72.27;99377.27;110785;1266;22959;-84
2024/03/10 05:45:02;;;;;;;22.80;9.10;;;;;;;8.11;72.22;99373.52;110938;1271;22144;-84
2024/03/10 05:47:54;;;;;;;23.80;10.30;;;;;;;8.11;72.21;99372.61;110938;1273;22106;-84
2024/03/10 05:50:44;;;;;;;23.10;10.00;;;;;;;8.11;72.26;99370.65;110900;1272;22149;-84
2024/03/10 05:53:36;;;;;;;23.40;10.00;;;;;;;8.11;72.37;99366.59;110898;1272;22081;-85
2024/03/10 05:56:27;;;;;;;25.80;10.90;;;;;;;8.11;72.36;99361.55;111057;1272;22132;-85
2024/03/10 05:59:16;;;;;;;;;;;;;;;8.12;72.36;99362.30;110944;1266;23095;-84
2024/03/10 06:02:07;;;;;;;24.40;8.90;;;;;;;8.11;72.17;99362.49;111050;1269;23027;-84
2024/03/10 06:04:58;;;;;;;27.40;10.60;;;;;;;8.12;72.09;99366.86;111084;1267;22240;-88
2024/03/10 06:07:49;;;;;;;22.80;9.90;;;;;;;8.12;72.14;99362.46;111106;1269;22961;-84
2024/03/10 06:10:41;;;;;;;25.90;10.30;;;;;;;8.13;72.08;99365.67;111095;1267;22980;-84
2024/03/10 06:13:32;;;;;;;25.30;11.00;;;;;;;8.14;72.14;99366.54;111084;1266;22516;-85
2024/03/10 06:16:23;;;;;;;27.50;10.20;;;;;;;8.15;72.36;99369.39;110853;1266;22466;-84
2024/03/10 06:25:31;;;;;;;25.10;10.10;;;;;;;8.23;72.37;99364.53;111056;1265;22352;-84
2024/03/10 06:28:22;;;;;;;23.90;10.30;;;;;;;8.26;72.28;99360.92;111125;1271;22260;-84
2024/03/10 06:31:13;;;;;;;26.10;10.00;;;;;;;8.29;72.16;99359.71;111114;1269;22168;-85
2024/03/10 06:34:04;;;;;;;24.30;9.40;;;;;;;8.31;72.06;99358.72;111081;1266;22149;-84
2024/03/10 06:36:56;;;;;;;23.70;10.10;;;;;;;8.33;72.07;99355.47;111086;1269;22239;-84
2024/03/10 06:39:47;;;;;;;26.40;9.90;;;;;;;8.36;71.96;99357.68;110854;1266;22369;-84
2024/03/10 06:42:52;;;;;;;21.70;8.50;;;;;;;8.40;71.75;99361.21;111055;1266;22927;-85
2024/03/10 06:45:44;;;;;;;21.40;8.70;;;;;;;8.44;71.83;99360.90;110781;1272;22194;-85
2024/03/10 06:48:35;;;;;;;20.60;7.30;;;;;;;8.47;71.50;99361.66;111073;1272;22259;-84
2024/03/10 06:51:26;;;;;;;20.00;7.90;;;;;;;8.49;71.34;99361.24;110928;1272;22433;-86
2024/03/10 06:54:17;;;;;;;25.00;8.30;;;;;;;8.52;71.33;99360.27;110938;1266;23203;-84
2024/03/10 06:57:08;;;;;;;24.10;8.70;;;;;;;8.56;71.29;99360.41;110930;1265;22123;-85
2024/03/10 06:59:59;;;;;;;20.90;8.10;;;;;;;8.59;71.12;99362.41;110803;1272;22087;-84
2024/03/10 07:02:50;;;;;;;22.20;7.90;;;;;;;8.61;71.06;99356.48;110916;1272;22182;-84
2024/03/10 07:05:41;;;;;;;18.90;7.60;;;;;;;8.64;71.01;99355.73;110924;1273;22925;-84
2024/03/10 07:08:32;;;;;;;21.20;8.20;;;;;;;8.67;70.91;99350.85;111182;1253;22287;-85
2024/03/10 07:11:23;;;;;;;20.80;7.60;;;;;;;8.70;70.69;99355.34;110968;1266;22157;-84
2024/03/10 07:14:15;;;;;;;20.30;7.30;;;;;;;8.72;70.43;99357.09;111020;1270;22198;-83
2024/03/10 07:17:07;;;;;;;17.80;7.00;;;;;;;8.75;70.26;99360.25;111078;1265;22182;-84
2024/03/10 07:20:02;;;;;;;18.20;6.70;;;;;;;8.78;70.56;99362.61;111064;1271;22382;-85
2024/03/10 07:22:53;;;;;;;16.90;6.40;;;;;;;8.80;70.37;99360.61;111075;1266;22178;-83
2024/03/10 07:25:44;;;;;;;19.00;6.50;;;;;;;8.83;70.19;99354.34;111101;1266;22101;-84
2024/03/10 07:28:36;;;;;;;18.30;7.00;;;;;;;8.86;70.13;99357.61;110999;1266;23006;-86
2024/03/10 07:31:26;;;;;;;;;;;;;;;8.89;70.12;99358.70;111018;1272;22389;-84
2024/03/10 07:34:17;;;;;;;17.90;5.70;;;;;;;8.90;70.01;99354.61;111086;1272;22122;-85
2024/03/10 07:37:08;;;;;;;19.40;7.30;;;;;;;8.94;69.92;99358.55;111016;1272;22138;-85
2024/03/10 07:40:01;;;;;;;18.90;6.60;;;;;;;8.97;69.71;99354.29;111001;1266;22977;-84
2024/03/10 07:42:52;;;;;;;16.30;6.20;;;;;;;9.01;69.88;99353.61;111056;1269;22329;-85
2024/03/10 07:45:45;;;;;;;16.70;5.10;;;;;;;9.05;69.67;99352.97;110854;1267;22213;-86
2024/03/10 07:48:36;;;;;;;15.40;5.60;;;;;;;9.10;69.34;99355.38;110939;1267;22232;-84
2024/03/10 07:51:27;;;;;;;14.30;5.50;;;;;;;9.13;69.56;99353.84;111072;1272;22434;-85
2024/03/10 07:54:18;;;;;;;16.70;5.70;;;;;;;9.17;69.49;99358.35;111060;1272;22432;-85
2024/03/10 07:57:09;;;;;;;17.20;5.70;;;;;;;9.22;69.63;99356.31;110861;1262;22234;-83
2024/03/10 08:00:01;;;;;;;16.80;6.50;;;;;;;9.28;69.65;99360.42;110975;1257;22155;-85
2024/03/10 08:02:52;;;;;;;16.90;6.40;;;;;;;9.35;69.74;99360.14;110791;1259;23146;-85
2024/03/10 08:05:43;;;;;;;19.10;6.00;;;;;;;9.42;69.61;99352.87;110937;1273;22337;-84
2024/03/10 08:08:34;;;;;;;17.00;6.10;;;;;;;9.51;69.56;99353.51;111110;1268;22933;-85
2024/03/10 08:11:25;;;;;;;18.60;6.40;;;;;;;9.59;69.60;99349.08;110931;1268;22213;-85
2024/03/10 08:14:20;;;;;;;15.10;5.70;;;;;;;9.66;69.41;99344.11;111084;1271;22898;-86
2024/03/10 08:17:11;;;;;;;18.30;6.10;;;;;;;9.72;69.31;99342.79;111055;1266;22221;-86
2024/03/10 08:20:04;;;;;;;18.30;5.90;;;;;;;9.76;69.14;99335.84;111068;1269;22173;-84
2024/03/10 08:22:55;;;;;;;17.50;6.70;;;;;;;9.79;68.87;99339.20;110997;1269;22225;-85
2024/03/10 08:25:48;;;;;;;17.70;7.30;;;;;;;9.82;68.84;99340.60;110814;1270;22156;-85
2024/03/10 08:28:39;;;;;;;18.90;6.60;;;;;;;9.84;68.53;99344.91;111002;1272;22145;-85
2024/03/10 08:31:30;;;;;;;20.90;7.20;;;;;;;9.84;68.60;99348.31;110977;1269;22217;-85
2024/03/10 08:34:21;;;;;;;20.30;7.60;;;;;;;9.86;68.59;99348.83;110799;1270;22273;-85
2024/03/10 08:37:13;;;;;;;21.40;7.90;;;;;;;9.88;68.28;99343.58;110724;1270;22188;-87
2024/03/10 08:40:09;;;;;;;19.20;7.50;;;;;;;9.93;68.18;99338.80;110791;1266;22116;-85
2024/03/10 08:43:01;;;;;;;16.20;6.00;;;;;;;10.00;68.31;99330.53;110948;1269;22875;-87
2024/03/10 08:45:54;;;;;;;17.20;6.70;;;;;;;10.06;67.84;99322.96;110826;1267;22557;-87
2024/03/10 08:48:45;;;;;;;14.70;5.90;;;;;;;10.13;67.57;99320.46;110979;1269;22262;-85
2024/03/10 08:51:36;;;;;;;14.00;4.90;;;;;;;10.18;67.51;99319.33;111059;1266;22310;-85
2024/03/10 08:54:29;;;;;;;15.90;5.60;;;;;;;10.23;67.55;99318.89;111072;1272;22916;-86
2024/03/10 08:57:20;;;;;;;16.30;5.60;;;;;;;10.25;67.13;99318.90;110806;1272;22218;-85
2024/03/10 09:00:13;;;;;;;15.30;4.40;;;;;;;10.24;66.66;99322.44;111060;1267;22441;-85
2024/03/10 09:03:04;;;;;;;17.40;5.80;;;;;;;10.23;66.40;99324.42;110916;1272;22555;-85
2024/03/10 09:05:55;;;;;;;18.40;6.00;;;;;;;10.22;66.21;99319.23;111059;1269;22121;-85
2024/03/10 09:08:47;;;;;;;19.10;7.00;;;;;;;10.20;66.17;99323.02;110804;1272;22246;-85
2024/03/10 09:11:37;;;;;;;27.70;11.90;;;;;;;10.17;66.24;99319.16;110938;1272;22153;-85
2024/03/10 09:14:26;;;;;;;;;;;;;;;10.15;66.15;99321.28;110997;1267;22610;-85
2024/03/10 09:17:18;;;;;;;20.20;7.90;;;;;;;10.13;66.24;99318.42;111033;1272;22142;-85
2024/03/10 09:20:13;;;;;;;20.20;7.10;;;;;;;10.10;66.15;99313.17;110815;1268;22238;-85
2024/03/10 09:23:04;;;;;;;18.30;7.10;;;;;;;10.08;65.89;99316.02;110916;1272;22257;-84
2024/03/10 09:25:55;;;;;;;16.90;6.80;;;;;;;10.06;65.91;99314.49;110860;1272;22151;-85
2024/03/10 09:28:46;;;;;;;21.10;6.70;;;;;;;10.03;65.93;99315.75;111006;1272;22123;-82
2024/03/10 09:31:40;;;;;;;15.30;5.10;;;;;;;10.02;65.92;99315.78;111047;1269;22183;-83
2024/03/10 09:34:31;;;;;;;19.10;6.50;;;;;;;10.00;65.70;99311.98;111024;1269;22155;-83
2024/03/10 09:37:22;;;;;;;17.40;6.40;;;;;;;10.00;65.84;99309.08;111057;1269;22221;-82
2024/03/10 09:40:16;;;;;;;19.80;6.30;;;;;;;10.01;66.00;99308.03;111014;1267;22943;-82
2024/03/10 09:43:11;;;;;;;17.20;6.40;;;;;;;10.03;65.83;99306.23;111068;1266;22403;-82
2024/03/10 09:46:04;;;;;;;18.10;6.20;;;;;;;10.06;65.96;99302.53;111004;1272;22361;-82
2024/03/10 09:48:56;;;;;;;21.00;8.00;;;;;;;10.09;66.12;99302.41;111000;1267;22165;-81
2024/03/10 09:51:49;;;;;;;21.00;8.60;;;;;;;10.14;66.19;99301.84;111094;1271;22196;-81
2024/03/10 09:54:40;;;;;;;22.00;9.10;;;;;;;10.17;66.12;99298.62;111053;1271;22219;-81
2024/03/10 09:57:32;;;;;;;23.30;8.40;;;;;;;10.20;66.05;99296.86;111070;1267;22216;-81
2024/03/10 10:00:24;;;;;;;23.60;9.00;;;;;;;10.22;65.79;99294.28;110877;1267;22591;-81
2024/03/10 10:03:18;;;;;;;22.20;8.30;;;;;;;10.26;65.95;99294.00;111047;1266;22255;-81
2024/03/10 10:06:09;;;;;;;23.10;7.80;;;;;;;10.31;65.90;99290.52;110979;1262;22207;-82
2024/03/10 10:09:07;;;;;;;21.50;8.20;;;;;;;10.40;65.82;99286.60;110893;1273;22085;-81
2024/03/10 10:11:59;;;;;;;20.50;8.50;;;;;;;10.50;65.69;99285.14;110794;1272;22071;-83
2024/03/10 10:14:51;;;;;;;22.10;8.80;;;;;;;10.58;65.62;99282.92;110832;1272;22443;-82
2024/03/10 10:17:52;;;;;;;19.10;7.50;;;;;;;10.67;65.51;99276.25;110888;1272;22781;-83
2024/03/10 10:20:42;;;;;;;;;;;;;;;10.77;65.27;99268.06;110881;1269;22424;-81
2024/03/10 10:23:33;;;;;;;20.60;7.60;;;;;;;10.81;65.07;99265.54;110768;1272;22199;-82
2024/03/10 10:26:24;;;;;;;25.40;8.70;;;;;;;10.84;64.77;99261.02;110878;1269;23048;-82
2024/03/10 10:29:16;;;;;;;20.30;8.80;;;;;;;10.88;64.92;99254.69;110951;1272;111913;-83
2024/03/10 10:32:08;;;;;;;21.10;8.20;;;;;;;10.92;64.38;99251.80;110900;1269;22118;-82
2024/03/10 10:35:00;;;;;;;21.80;8.90;;;;;;;10.95;64.58;99244.02;110924;1262;22243;-82
2024/03/10 10:37:50;;;;;;;22.10;9.40;;;;;;;10.99;64.37;99242.92;110908;1268;22167;-82
2024/03/10 10:40:44;;;;;;;25.10;9.40;;;;;;;11.01;64.16;99236.73;110920;1269;22210;-83
2024/03/10 10:43:37;;;;;;;22.20;8.90;;;;;;;11.04;64.22;99231.09;110849;1272;23138;-82
2024/03/10 10:46:29;;;;;;;19.20;7.70;;;;;;;11.04;63.91;99230.19;110883;1269;22213;-83
2024/03/10 10:49:21;;;;;;;24.90;10.10;;;;;;;11.05;64.01;99226.13;110871;1269;22216;-83
2024/03/10 10:52:13;;;;;;;21.70;8.50;;;;;;;11.05;63.98;99222.73;110906;1267;24331;-83
2024/03/10 10:55:05;;;;;;;23.20;9.30;;;;;;;11.05;63.90;99218.20;110959;1272;22128;-83
2024/03/10 10:58:00;;;;;;;25.00;8.90;;;;;;;11.06;64.08;99210.34;110974;1267;22111;-83
2024/03/10 11:00:53;;;;;;;22.40;9.00;;;;;;;11.05;64.15;99210.08;110956;1269;23146;-83
2024/03/10 11:03:46;;;;;;;22.10;8.70;;;;;;;11.07;64.12;99212.32;110840;1272;22196;-83
2024/03/10 11:06:37;;;;;;;23.30;9.90;;;;;;;11.12;64.11;99209.52;110954;1266;23501;-83
2024/03/10 11:09:30;;;;;;;22.70;9.20;;;;;;;11.17;64.47;99205.11;110840;1257;22113;-83
2024/03/10 11:12:23;;;;;;;20.30;8.60;;;;;;;11.21;64.41;99203.23;110957;1272;22457;-83
2024/03/10 11:15:15;;;;;;;21.90;8.90;;;;;;;11.28;64.32;99199.58;111025;1266;22366;-83
2024/03/10 11:18:25;;;;;;;23.30;11.50;;;;;;;11.34;64.50;99204.48;111075;1266;22278;-84
2024/03/10 11:21:18;;;;;;;22.60;10.00;;;;;;;11.39;64.32;99204.12;111050;1266;22919;-83
2024/03/10 11:24:17;;;;;;;22.10;9.60;;;;;;;11.47;64.52;99205.95;111066;1266;22218;-83
2024/03/10 11:27:18;;;;;;;24.00;8.60;;;;;;;11.53;64.41;99201.02;111065;1262;22479;-83
2024/03/10 11:33:34;;;;;;;17.60;6.20;;;;;;;11.72;63.94;99191.90;105813;1312;542796;-82
2024/03/10 11:36:26;;;;;;;17.30;6.30;;;;;;;11.80;63.91;99187.98;109029;1268;22602;-83
2024/03/10 11:39:20;;;;;;;19.30;6.10;;;;;;;11.89;63.95;99185.35;109241;1251;22553;-82
2024/03/10 11:42:12;;;;;;;14.90;5.70;;;;;;;11.98;63.85;99182.62;109218;1267;22517;-83
2024/03/10 11:45:03;;;;;;;16.20;5.70;;;;;;;12.08;63.71;99180.70;108948;1274;24238;-81
2024/03/10 11:47:56;;;;;;;15.30;6.00;;;;;;;12.17;63.44;99180.36;108984;1271;118452;-83
2024/03/10 11:50:48;;;;;;;16.00;5.50;;;;;;;12.23;63.29;99181.81;109248;1271;22950;-81
2024/03/10 11:53:40;;;;;;;17.50;7.00;;;;;;;12.29;63.41;99176.33;109069;1271;22555;-82
2024/03/10 11:56:32;;;;;;;16.40;5.30;;;;;;;12.34;63.27;99169.04;109287;1262;22528;-82
2024/03/10 11:59:23;;;;;;;20.60;6.50;;;;;;;12.40;63.14;99164.98;109520;1262;22638;-83
2024/03/10 12:02:14;;;;;;;16.60;6.00;;;;;;;12.45;63.41;99168.15;109720;1262;22549;-83
2024/03/10 12:05:06;;;;;;;17.00;6.60;;;;;;;12.50;63.29;99165.54;109662;1269;22543;-82
2024/03/10 12:07:58;;;;;;;17.60;5.40;;;;;;;12.57;63.19;99166.47;109652;1259;22552;-83
2024/03/10 12:10:57;;;;;;;24.60;6.60;;;;;;;12.65;62.94;99164.62;108688;1257;25444;-83
2024/03/10 12:13:51;;;;;;;18.20;6.20;;;;;;;12.72;63.18;99164.63;109659;1255;23449;-83
2024/03/10 12:16:48;;;;;;;19.30;7.30;;;;;;;12.75;63.33;99157.68;109624;1257;22599;-83
2024/03/10 12:19:39;;;;;;;20.30;7.50;;;;;;;12.77;63.14;99155.17;109542;1268;22569;-83
2024/03/10 12:22:30;;;;;;;18.60;6.50;;;;;;;12.79;63.06;99150.33;109801;1262;22541;-83
2024/03/10 12:25:22;;;;;;;21.80;7.30;;;;;;;12.80;63.22;99148.39;109480;1268;22595;-83
2024/03/10 12:28:14;;;;;;;25.10;9.10;;;;;;;12.81;63.23;99148.37;109631;1269;23975;-83
2024/03/10 12:31:12;;;;;;;25.20;10.50;;;;;;;12.82;63.15;99146.08;109530;1268;22596;-84
2024/03/10 12:34:04;;;;;;;22.50;9.00;;;;;;;12.83;63.02;99141.02;109691;1268;22532;-82
2024/03/10 12:36:56;;;;;;;19.60;6.00;;;;;;;12.84;62.88;99135.98;109760;1262;23012;-83
2024/03/10 12:39:56;;;;;;;15.80;3.50;;;;;;;12.86;62.89;99132.80;109581;1262;22562;-82
2024/03/10 12:42:47;;;;;;;12.50;3.50;;;;;;;12.90;62.43;99128.34;109521;1267;22515;-81
2024/03/10 12:45:39;;;;;;;9.80;2.50;;;;;;;12.97;62.45;99121.60;108732;1266;25504;-81
2024/03/10 12:48:30;;;;;;;10.70;3.40;;;;;;;13.06;62.15;99126.19;108434;1264;24229;-81
2024/03/10 12:51:21;;;;;;;10.30;2.90;;;;;;;13.14;62.06;99115.64;108531;1263;22682;-81
2024/03/10 12:54:12;;;;;;;13.40;4.30;;;;;;;13.26;62.40;99108.48;108548;1262;22542;-81
2024/03/10 12:57:03;;;;;;;12.40;3.60;;;;;;;13.39;62.13;99100.80;108567;1268;22630;-81
2024/03/10 12:59:54;;;;;;;16.00;4.10;;;;;;;13.51;61.76;99100.15;111244;1267;22149;-81
2024/03/10 13:02:46;;;;;;;13.70;4.60;;;;;;;13.61;61.81;99102.69;111359;1264;22699;-81
2024/03/10 13:05:38;;;;;;;10.50;3.10;;;;;;;13.70;61.27;99102.60;111303;1261;23029;-81
2024/03/10 13:08:29;;;;;;;8.50;2.80;;;;;;;13.78;61.32;99096.73;111335;1267;22152;-81
2024/03/10 13:11:26;;;;;;;11.60;3.10;;;;;;;13.88;61.41;99089.52;111284;1262;22401;-81
2024/03/10 13:14:16;;;;;;;10.70;3.20;;;;;;;13.97;60.86;99087.98;111119;1264;22196;-81
2024/03/10 13:17:08;;;;;;;8.80;3.20;;;;;;;14.02;60.89;99089.30;111279;1266;22359;-81
2024/03/10 13:19:58;;;;;;;12.90;3.80;;;;;;;14.08;60.99;99088.40;111340;1262;23018;-82
2024/03/10 13:22:49;;;;;;;16.10;5.90;;;;;;;14.10;60.99;99087.09;111241;1269;22666;-81
2024/03/10 13:25:41;;;;;;;26.00;10.90;;;;;;;14.11;61.28;99085.70;111168;1266;22110;-81
2024/03/10 13:28:31;;;;;;;30.70;12.60;;;;;;;14.09;60.74;99081.54;111280;1262;23243;-81
2024/03/10 13:31:22;;;;;;;34.40;15.30;;;;;;;14.06;60.76;99082.14;111286;1261;22877;-82
2024/03/10 13:34:14;;;;;;;33.30;14.30;;;;;;;14.03;61.15;99075.39;109486;1265;22644;-82
2024/03/10 13:37:06;;;;;;;39.90;19.10;;;;;;;14.01;61.00;99077.36;108710;1268;24237;-83
2024/03/10 13:39:57;;;;;;;34.80;16.10;;;;;;;13.96;61.20;99071.20;108659;1268;22566;-81
2024/03/10 13:42:49;;;;;;;29.60;12.90;;;;;;;13.93;61.10;99071.77;108203;1268;22642;-81